Time;durP1;ratioP1;P1;durP2;ratioP2;P2;SDS_P1;SDS_P2;PMS_P1;PMS_P2;Temp;Humidity;BMP_temperature;BMP_pressure;BME280_temperature;BME280_humidity;BME280_pressure;Samples;Min_cycle;Max_cycle;Signal;HPM_P1;HPM_P2
2021/07/29 00:07:57;;;;;;;2.17;1.13;;;17.00;99.90;;;;;;20873680;28;20044;-51
2021/07/29 00:27:59;;;;;;;3.45;0.50;;;15.10;99.90;;;;;;20868414;28;20124;-49
2021/07/29 00:38:02;;;;;;;1.10;0.22;;;14.60;99.90;;;;;;20870149;28;20312;-49
2021/07/29 00:48:04;;;;;;;1.33;0.30;;;14.40;99.90;;;;;;20867745;28;20053;-49
2021/07/29 00:58:05;;;;;;;5.60;1.13;;;14.40;99.90;;;;;;20869960;28;20393;-49
2021/07/29 01:08:06;;;;;;;2.08;0.50;;;14.40;99.90;;;;;;20868160;28;20045;-49
2021/07/29 01:18:08;;;;;;;4.68;0.65;;;14.40;99.90;;;;;;20864347;28;20098;-49
2021/07/29 01:28:09;;;;;;;3.92;0.40;;;14.50;99.90;;;;;;20867480;28;20041;-49
2021/07/29 01:38:10;;;;;;;5.82;0.93;;;14.70;99.90;;;;;;20864344;28;20079;-50
2021/07/29 01:48:11;;;;;;;5.30;0.68;;;14.80;99.90;;;;;;20863745;28;20138;-50
2021/07/29 01:58:14;;;;;;;6.40;0.70;;;15.00;99.90;;;;;;20864243;28;20046;-50
2021/07/29 02:08:15;;;;;;;1.73;0.68;;;15.20;99.90;;;;;;20867305;28;20037;-50
2021/07/29 02:18:16;;;;;;;2.90;0.93;;;15.20;99.90;;;;;;20863659;28;20052;-50
2021/07/29 02:28:17;;;;;;;5.40;0.95;;;15.00;99.90;;;;;;20863810;28;20139;-50
2021/07/29 02:38:18;;;;;;;3.67;1.00;;;14.70;99.90;;;;;;20862135;28;20367;-50
2021/07/29 02:48:20;;;;;;;3.22;1.05;;;14.90;99.90;;;;;;20859636;28;20138;-50
2021/07/29 02:58:21;;;;;;;6.78;2.03;;;14.90;99.90;;;;;;20860369;28;20045;-50
2021/07/29 03:08:23;;;;;;;2.90;0.95;;;14.70;99.90;;;;;;20857068;28;20051;-50
2021/07/29 03:18:24;;;;;;;4.40;0.57;;;14.70;99.90;;;;;;20859241;28;20052;-50
2021/07/29 03:28:25;;;;;;;2.42;0.73;;;14.50;99.90;;;;;;20886937;28;20515;-50
2021/07/29 03:38:26;;;;;;;1.80;0.60;;;14.30;99.90;;;;;;20885369;28;20051;-50
2021/07/29 03:48:27;;;;;;;2.72;0.70;;;14.30;99.90;;;;;;20887170;28;20068;-50
2021/07/29 03:58:28;;;;;;;3.85;1.05;;;14.40;99.90;;;;;;20883713;28;20123;-49
2021/07/29 04:08:29;;;;;;;5.00;0.95;;;14.40;99.90;;;;;;20886872;28;20115;-50
2021/07/29 04:18:33;;;;;;;5.18;0.90;;;14.50;99.90;;;;;;20885839;28;20079;-50
2021/07/29 04:28:34;;;;;;;3.38;0.73;;;14.60;99.90;;;;;;20885049;28;20041;-50
2021/07/29 04:38:35;;;;;;;7.55;0.88;;;14.70;99.90;;;;;;20873617;28;20060;-50
2021/07/29 04:48:37;;;;;;;4.43;1.05;;;14.70;99.90;;;;;;20869640;28;20060;-50
2021/07/29 04:58:38;;;;;;;5.30;1.08;;;14.90;99.90;;;;;;20870944;28;20048;-50
2021/07/29 05:08:43;;;;;;;3.83;0.68;;;14.90;99.90;;;;;;20868728;28;20068;-50
2021/07/29 05:18:44;;;;;;;7.60;1.02;;;15.10;99.90;;;;;;20867979;28;20053;-50
2021/07/29 05:28:46;;;;;;;5.80;0.90;;;15.20;99.90;;;;;;20866419;28;20444;-50
2021/07/29 05:38:47;;;;;;;7.40;1.73;;;15.50;99.90;;;;;;20868086;28;20076;-50
2021/07/29 05:48:49;;;;;;;1.98;0.70;;;15.60;99.90;;;;;;20868642;28;20069;-50
2021/07/29 05:58:50;;;;;;;3.30;0.73;;;15.60;99.90;;;;;;20872469;28;20045;-50
2021/07/29 06:08:57;;;;;;;4.18;0.95;;;15.80;99.90;;;;;;20873671;28;20056;-51
2021/07/29 06:19:10;;;;;;;4.00;0.70;;;15.60;99.90;;;;;;20854603;28;20061;-50
2021/07/29 06:29:11;;;;;;;2.72;0.60;;;15.70;99.90;;;;;;20870557;28;20041;-51
2021/07/29 06:39:12;;;;;;;4.15;0.90;;;16.00;99.90;;;;;;20871090;28;20363;-51
2021/07/29 06:49:14;;;;;;;4.78;0.85;;;16.20;99.90;;;;;;20865830;28;20068;-51
2021/07/29 06:59:15;;;;;;;4.57;0.77;;;16.40;99.90;;;;;;20867915;28;20411;-51
2021/07/29 07:09:16;;;;;;;4.75;0.82;;;16.60;99.90;;;;;;20865916;28;20033;-51
2021/07/29 07:19:17;;;;;;;1.85;0.77;;;16.80;99.90;;;;;;20860077;28;20037;-51
2021/07/29 07:29:18;;;;;;;14.63;2.28;;;16.90;99.90;;;;;;20864067;28;20045;-51
2021/07/29 07:39:19;;;;;;;3.60;0.90;;;17.00;99.90;;;;;;20865572;28;20128;-51
2021/07/29 07:49:20;;;;;;;5.30;1.83;;;17.30;99.90;;;;;;20861996;28;20127;-51
2021/07/29 07:59:22;;;;;;;2.70;1.05;;;17.10;99.90;;;;;;20865374;28;20224;-51
2021/07/29 08:09:24;;;;;;;4.15;0.95;;;17.30;99.90;;;;;;20871820;28;20363;-51
2021/07/29 08:19:25;;;;;;;1.73;0.50;;;17.60;99.90;;;;;;20853401;28;20284;-51
2021/07/29 08:29:30;;;;;;;3.80;0.70;;;17.90;99.90;;;;;;20878770;28;20130;-50
2021/07/29 08:39:31;;;;;;;1.05;0.52;;;18.40;99.90;;;;;;20872801;28;20041;-51
2021/07/29 08:49:34;;;;;;;1.52;0.73;;;18.20;99.90;;;;;;20866717;28;20053;-50
2021/07/29 08:59:37;;;;;;;2.38;0.50;;;18.50;99.90;;;;;;20869961;28;20052;-50
2021/07/29 09:09:48;;;;;;;4.43;0.60;;;18.50;99.90;;;;;;20872406;28;20135;-50
2021/07/29 09:19:53;;;;;;;2.95;0.50;;;19.20;99.90;;;;;;20871256;28;20048;-50
2021/07/29 09:30:28;;;;;;;1.70;0.38;;;19.20;99.90;;;;;;20870121;28;20056;-51
2021/07/29 09:40:42;;;;;;;2.42;0.63;;;19.30;99.90;;;;;;20865265;28;20049;-51
2021/07/29 09:50:43;;;;;;;0.98;0.40;;;19.50;99.90;;;;;;20864483;28;20055;-51
2021/07/29 10:00:45;;;;;;;10.57;0.70;;;19.40;99.90;;;;;;20867335;28;20079;-50
2021/07/29 10:10:48;;;;;;;2.13;0.63;;;19.40;99.90;;;;;;20867833;28;20282;-50
2021/07/29 10:21:22;;;;;;;2.80;0.88;;;19.80;99.90;;;;;;20871961;28;20489;-48
2021/07/29 10:31:23;;;;;;;2.05;0.55;;;20.20;99.90;;;;;;20858309;28;20045;-49
2021/07/29 10:41:39;;;;;;;1.30;0.57;;;20.70;99.90;;;;;;20841949;28;20052;-48
2021/07/29 10:52:07;;;;;;;0.95;0.40;;;21.40;99.90;;;;;;20835130;28;20067;-48
2021/07/29 11:12:13;;;;;;;1.30;0.85;;;21.20;99.90;;;;;;20837674;28;20099;-49
2021/07/29 11:22:15;;;;;;;1.02;0.40;;;21.20;99.90;;;;;;20846346;28;20343;-48
2021/07/29 11:32:17;;;;;;;1.85;0.40;;;21.10;99.90;;;;;;20856771;28;20284;-48
2021/07/29 11:42:40;;;;;;;1.88;0.57;;;21.30;99.90;;;;;;20859455;28;20183;-49
2021/07/29 11:52:59;;;;;;;3.58;0.40;;;21.40;99.90;;;;;;20856832;28;20103;-49
2021/07/29 12:03:01;;;;;;;6.38;0.70;;;21.90;99.90;;;;;;20837295;28;20048;-48
2021/07/29 12:13:04;;;;;;;2.20;0.55;;;21.50;99.90;;;;;;20827950;28;20077;-48
2021/07/29 12:23:09;;;;;;;3.63;0.90;;;21.30;99.90;;;;;;20850738;28;20338;-48
2021/07/29 12:33:18;;;;;;;2.13;0.80;;;22.20;99.90;;;;;;20842012;28;20041;-48
2021/07/29 12:43:27;;;;;;;1.05;0.50;;;21.40;99.90;;;;;;20847304;28;20149;-48
2021/07/29 12:53:28;;;;;;;2.58;0.63;;;22.40;99.90;;;;;;20833530;28;20060;-49
2021/07/29 13:03:32;;;;;;;5.85;1.35;;;23.20;99.90;;;;;;20851629;28;20496;-48
2021/07/29 13:13:36;;;;;;;2.08;0.60;;;23.00;99.90;;;;;;20847245;28;20052;-48
2021/07/29 13:23:38;;;;;;;3.30;0.68;;;22.20;99.90;;;;;;20831184;28;20107;-48
2021/07/29 13:33:40;;;;;;;2.55;0.60;;;21.50;99.90;;;;;;20841765;28;20042;-48
2021/07/29 13:43:41;;;;;;;6.97;0.95;;;22.20;99.90;;;;;;20839746;28;20052;-48
2021/07/29 13:53:42;;;;;;;1.45;0.75;;;22.40;99.90;;;;;;20837706;28;20100;-48
2021/07/29 14:03:43;;;;;;;1.27;0.45;;;22.30;99.90;;;;;;20842340;28;20052;-48
2021/07/29 14:13:45;;;;;;;2.05;0.60;;;22.40;99.90;;;;;;20830067;28;20045;-48
2021/07/29 14:23:46;;;;;;;2.08;0.30;;;22.10;98.50;;;;;;20830178;28;20046;-47
2021/07/29 14:33:48;;;;;;;3.22;0.98;;;21.80;99.50;;;;;;20824738;28;20115;-48
2021/07/29 14:43:49;;;;;;;1.98;0.50;;;21.80;99.90;;;;;;20839457;28;20044;-48
2021/07/29 14:53:50;;;;;;;2.17;0.50;;;22.00;99.90;;;;;;20835174;28;20048;-49
2021/07/29 16:16:12;;;;;;;2.65;0.70;;;21.10;99.90;;;;;;20810802;28;20049;-48
2021/07/29 16:26:12;;;;;;;1.48;0.50;;;21.10;99.90;;;;;;20815155;28;20135;-49
2021/07/29 16:36:14;;;;;;;1.17;0.50;;;20.90;99.90;;;;;;20831998;28;20067;-48
2021/07/29 16:46:15;;;;;;;0.90;0.30;;;20.90;99.90;;;;;;20833878;28;20063;-48
2021/07/29 16:56:16;;;;;;;1.77;0.60;;;20.70;99.90;;;;;;20821193;28;20044;-48
2021/07/29 17:06:17;;;;;;;1.35;0.40;;;20.60;99.90;;;;;;20837585;28;20049;-48
2021/07/29 17:16:19;;;;;;;2.58;0.50;;;20.60;99.90;;;;;;20853823;28;20059;-48
2021/07/29 17:26:20;;;;;;;1.73;0.60;;;20.50;99.90;;;;;;20843895;28;20120;-49
2021/07/29 17:36:21;;;;;;;2.63;0.65;;;20.30;99.90;;;;;;20864304;28;20045;-48
2021/07/29 17:46:23;;;;;;;12.52;1.58;;;20.20;99.90;;;;;;20866303;28;20052;-48
2021/07/29 17:56:24;;;;;;;4.07;0.70;;;20.00;99.90;;;;;;20851211;28;20048;-48
2021/07/29 18:06:25;;;;;;;5.65;0.70;;;19.80;99.90;;;;;;20848054;28;20257;-48
2021/07/29 18:16:26;;;;;;;2.90;0.85;;;19.60;99.90;;;;;;20857496;28;20041;-48
2021/07/29 18:26:27;;;;;;;3.78;1.42;;;19.60;99.90;;;;;;20847553;28;20044;-48
2021/07/29 18:36:29;;;;;;;3.80;1.45;;;19.50;99.90;;;;;;20844824;28;20037;-48
2021/07/29 18:46:30;;;;;;;4.47;2.15;;;19.30;99.90;;;;;;20857172;28;20048;-48
2021/07/29 18:56:31;;;;;;;2.28;0.57;;;19.20;99.90;;;;;;20845600;28;20051;-48
2021/07/29 19:06:36;;;;;;;5.03;1.08;;;19.20;99.90;;;;;;20847144;28;20049;-49
2021/07/29 19:16:37;;;;;;;4.38;1.55;;;19.00;99.90;;;;;;20861666;28;20159;-49
2021/07/29 19:26:39;;;;;;;1.48;0.65;;;18.80;99.90;;;;;;20813878;28;20056;-48
2021/07/29 19:36:40;;;;;;;2.75;0.90;;;18.70;99.90;;;;;;20859062;28;20037;-48
2021/07/29 19:46:41;;;;;;;5.70;0.98;;;18.50;99.90;;;;;;20858933;28;20056;-49
2021/07/29 19:56:42;;;;;;;1.42;0.52;;;18.10;99.90;;;;;;20824272;28;20049;-49
2021/07/29 20:06:43;;;;;;;2.83;1.00;;;17.70;99.90;;;;;;20863160;28;20076;-48
2021/07/29 20:16:44;;;;;;;2.60;0.63;;;17.60;99.90;;;;;;20862260;28;20081;-48
2021/07/29 20:26:45;;;;;;;2.22;0.88;;;17.40;99.90;;;;;;20833537;28;20049;-49
2021/07/29 20:36:47;;;;;;;1.95;0.98;;;17.20;99.90;;;;;;20859212;28;20061;-48
2021/07/29 20:46:48;;;;;;;3.10;1.13;;;17.20;99.90;;;;;;20821092;28;20049;-48
2021/07/29 20:56:49;;;;;;;7.22;1.10;;;17.10;99.90;;;;;;20826063;28;20041;-48
2021/07/29 21:06:50;;;;;;;1.65;0.80;;;16.90;99.90;;;;;;20831268;28;20029;-48
2021/07/29 21:16:51;;;;;;;5.65;1.08;;;16.80;99.90;;;;;;20836033;28;20041;-48
2021/07/29 21:26:53;;;;;;;8.27;1.70;;;16.90;99.90;;;;;;20826426;28;20139;-48
2021/07/29 21:36:54;;;;;;;3.35;1.30;;;16.70;99.90;;;;;;20832960;28;20042;-48
2021/07/29 21:46:56;;;;;;;4.47;1.50;;;16.60;99.90;;;;;;20833057;28;20607;-48
2021/07/29 21:56:59;;;;;;;5.10;1.65;;;16.50;99.90;;;;;;20825362;28;20051;-48
2021/07/29 22:07:00;;;;;;;9.50;1.52;;;16.50;99.90;;;;;;20838128;28;20106;-48
2021/07/29 22:17:02;;;;;;;3.85;1.73;;;16.30;99.90;;;;;;20824978;28;20045;-48
2021/07/29 22:27:03;;;;;;;9.02;1.45;;;16.40;99.90;;;;;;20831982;28;20076;-49
2021/07/29 22:37:04;;;;;;;6.20;2.22;;;16.40;99.90;;;;;;20833851;28;20050;-48
2021/07/29 22:47:06;;;;;;;7.43;2.83;;;16.20;99.90;;;;;;20818609;28;20052;-48
2021/07/29 22:57:07;;;;;;;7.45;2.83;;;16.00;99.90;;;;;;20823231;28;20057;-48
2021/07/29 23:07:08;;;;;;;5.72;1.90;;;16.10;99.90;;;;;;20797869;28;20108;-48
2021/07/29 23:17:09;;;;;;;11.98;2.25;;;16.10;99.90;;;;;;20828336;28;20053;-48
2021/07/29 23:37:31;;;;;;;5.90;1.80;;;15.70;99.90;;;;;;20831061;28;20044;-48
2021/07/29 23:47:32;;;;;;;2.75;1.30;;;15.70;99.90;;;;;;20832458;28;20057;-48
2021/07/29 23:57:33;;;;;;;5.30;2.65;;;15.70;99.90;;;;;;20837414;28;20045;-51
